sensor_id;sensor_type;location;lat;lon;timestamp;P1;durP1;ratioP1;P2;durP2;ratioP2
15921;SDS011;8060;50.948;3.146;2024-02-16T00:01:47;9.40;;;6.23;;
15921;SDS011;8060;50.948;3.146;2024-02-16T00:04:15;10.60;;;5.80;;
15921;SDS011;8060;50.948;3.146;2024-02-16T00:06:43;9.90;;;6.07;;
15921;SDS011;8060;50.948;3.146;2024-02-16T00:09:11;11.33;;;6.27;;
15921;SDS011;8060;50.948;3.146;2024-02-16T00:11:39;8.87;;;6.10;;
15921;SDS011;8060;50.948;3.146;2024-02-16T00:14:10;9.60;;;6.63;;
15921;SDS011;8060;50.948;3.146;2024-02-16T00:16:39;12.27;;;7.03;;
15921;SDS011;8060;50.948;3.146;2024-02-16T00:19:07;11.83;;;7.30;;
15921;SDS011;8060;50.948;3.146;2024-02-16T00:21:36;10.37;;;7.27;;
15921;SDS011;8060;50.948;3.146;2024-02-16T00:24:05;10.37;;;6.83;;
15921;SDS011;8060;50.948;3.146;2024-02-16T00:26:34;11.27;;;6.30;;
15921;SDS011;8060;50.948;3.146;2024-02-16T00:29:02;10.70;;;6.33;;
15921;SDS011;8060;50.948;3.146;2024-02-16T00:31:31;10.27;;;7.07;;
15921;SDS011;8060;50.948;3.146;2024-02-16T00:34:00;13.03;;;6.87;;
15921;SDS011;8060;50.948;3.146;2024-02-16T00:36:28;9.27;;;6.30;;
15921;SDS011;8060;50.948;3.146;2024-02-16T00:38:57;8.03;;;5.67;;
15921;SDS011;8060;50.948;3.146;2024-02-16T00:41:25;9.00;;;5.93;;
15921;SDS011;8060;50.948;3.146;2024-02-16T00:43:53;8.80;;;5.20;;
15921;SDS011;8060;50.948;3.146;2024-02-16T00:46:22;9.10;;;5.50;;
15921;SDS011;8060;50.948;3.146;2024-02-16T00:48:51;9.70;;;5.00;;
15921;SDS011;8060;50.948;3.146;2024-02-16T00:51:21;12.60;;;5.87;;
15921;SDS011;8060;50.948;3.146;2024-02-16T00:53:52;10.20;;;4.80;;
15921;SDS011;8060;50.948;3.146;2024-02-16T00:56:20;8.33;;;5.20;;
15921;SDS011;8060;50.948;3.146;2024-02-16T00:58:49;8.33;;;5.23;;
15921;SDS011;8060;50.948;3.146;2024-02-16T01:01:17;9.87;;;5.67;;
15921;SDS011;8060;50.948;3.146;2024-02-16T01:03:47;13.80;;;5.70;;
15921;SDS011;8060;50.948;3.146;2024-02-16T01:06:15;8.77;;;5.47;;
15921;SDS011;8060;50.948;3.146;2024-02-16T01:08:45;12.27;;;6.70;;
15921;SDS011;8060;50.948;3.146;2024-02-16T01:11:14;11.13;;;6.10;;
15921;SDS011;8060;50.948;3.146;2024-02-16T01:13:42;11.70;;;7.13;;
15921;SDS011;8060;50.948;3.146;2024-02-16T01:16:10;12.17;;;7.77;;
15921;SDS011;8060;50.948;3.146;2024-02-16T01:18:39;10.47;;;8.03;;
15921;SDS011;8060;50.948;3.146;2024-02-16T01:21:07;14.57;;;8.47;;
15921;SDS011;8060;50.948;3.146;2024-02-16T01:23:36;13.27;;;7.80;;
15921;SDS011;8060;50.948;3.146;2024-02-16T01:26:05;10.33;;;7.67;;
15921;SDS011;8060;50.948;3.146;2024-02-16T01:28:33;10.43;;;6.80;;
15921;SDS011;8060;50.948;3.146;2024-02-16T01:31:01;9.43;;;5.93;;
15921;SDS011;8060;50.948;3.146;2024-02-16T01:33:29;12.80;;;6.43;;
15921;SDS011;8060;50.948;3.146;2024-02-16T01:36:01;9.40;;;6.13;;
15921;SDS011;8060;50.948;3.146;2024-02-16T01:38:29;10.90;;;5.63;;
15921;SDS011;8060;50.948;3.146;2024-02-16T01:40:58;9.70;;;5.87;;
15921;SDS011;8060;50.948;3.146;2024-02-16T01:43:27;10.03;;;5.97;;
15921;SDS011;8060;50.948;3.146;2024-02-16T01:45:56;9.17;;;5.53;;
15921;SDS011;8060;50.948;3.146;2024-02-16T01:48:26;10.00;;;6.00;;
15921;SDS011;8060;50.948;3.146;2024-02-16T01:50:55;11.67;;;6.83;;
15921;SDS011;8060;50.948;3.146;2024-02-16T01:53:23;11.97;;;6.50;;
15921;SDS011;8060;50.948;3.146;2024-02-16T01:55:51;10.43;;;6.00;;
15921;SDS011;8060;50.948;3.146;2024-02-16T01:58:19;10.23;;;6.10;;
15921;SDS011;8060;50.948;3.146;2024-02-16T02:00:49;11.27;;;6.03;;
15921;SDS011;8060;50.948;3.146;2024-02-16T02:03:17;8.60;;;5.67;;
15921;SDS011;8060;50.948;3.146;2024-02-16T02:05:45;11.00;;;5.53;;
15921;SDS011;8060;50.948;3.146;2024-02-16T02:08:14;10.07;;;5.37;;
15921;SDS011;8060;50.948;3.146;2024-02-16T02:10:43;11.10;;;5.23;;
15921;SDS011;8060;50.948;3.146;2024-02-16T02:13:11;9.23;;;5.37;;
15921;SDS011;8060;50.948;3.146;2024-02-16T02:15:41;8.37;;;5.43;;
15921;SDS011;8060;50.948;3.146;2024-02-16T02:18:10;11.00;;;5.90;;
15921;SDS011;8060;50.948;3.146;2024-02-16T02:20:39;11.63;;;6.27;;
15921;SDS011;8060;50.948;3.146;2024-02-16T02:23:08;10.50;;;6.37;;
15921;SDS011;8060;50.948;3.146;2024-02-16T02:25:36;10.47;;;6.27;;
15921;SDS011;8060;50.948;3.146;2024-02-16T02:28:06;10.87;;;6.27;;
15921;SDS011;8060;50.948;3.146;2024-02-16T02:30:34;7.87;;;6.13;;
15921;SDS011;8060;50.948;3.146;2024-02-16T02:33:04;12.63;;;6.63;;
15921;SDS011;8060;50.948;3.146;2024-02-16T02:35:32;10.93;;;6.57;;
15921;SDS011;8060;50.948;3.146;2024-02-16T02:38:00;10.60;;;6.23;;
15921;SDS011;8060;50.948;3.146;2024-02-16T02:40:30;8.57;;;5.83;;
15921;SDS011;8060;50.948;3.146;2024-02-16T02:42:59;8.97;;;6.53;;
15921;SDS011;8060;50.948;3.146;2024-02-16T02:45:27;9.00;;;5.60;;
15921;SDS011;8060;50.948;3.146;2024-02-16T02:47:55;8.57;;;5.60;;
15921;SDS011;8060;50.948;3.146;2024-02-16T02:50:23;6.07;;;4.83;;
15921;SDS011;8060;50.948;3.146;2024-02-16T02:52:51;7.30;;;5.10;;
15921;SDS011;8060;50.948;3.146;2024-02-16T02:55:19;9.87;;;4.87;;
15921;SDS011;8060;50.948;3.146;2024-02-16T02:57:49;8.83;;;5.13;;
15921;SDS011;8060;50.948;3.146;2024-02-16T03:00:17;6.87;;;4.97;;
15921;SDS011;8060;50.948;3.146;2024-02-16T03:02:45;8.07;;;4.67;;
15921;SDS011;8060;50.948;3.146;2024-02-16T03:05:15;7.03;;;4.87;;
15921;SDS011;8060;50.948;3.146;2024-02-16T03:07:43;8.17;;;4.80;;
15921;SDS011;8060;50.948;3.146;2024-02-16T03:10:11;7.03;;;5.47;;
15921;SDS011;8060;50.948;3.146;2024-02-16T03:12:41;8.77;;;5.07;;
15921;SDS011;8060;50.948;3.146;2024-02-16T03:15:12;11.30;;;5.77;;
15921;SDS011;8060;50.948;3.146;2024-02-16T03:17:40;7.43;;;4.73;;
15921;SDS011;8060;50.948;3.146;2024-02-16T03:20:09;8.63;;;4.93;;
15921;SDS011;8060;50.948;3.146;2024-02-16T03:22:37;9.77;;;4.97;;
15921;SDS011;8060;50.948;3.146;2024-02-16T03:25:06;9.37;;;5.00;;
15921;SDS011;8060;50.948;3.146;2024-02-16T03:27:35;8.43;;;4.47;;
15921;SDS011;8060;50.948;3.146;2024-02-16T03:30:04;9.77;;;4.80;;
15921;SDS011;8060;50.948;3.146;2024-02-16T03:32:34;8.30;;;4.50;;
15921;SDS011;8060;50.948;3.146;2024-02-16T03:35:02;6.87;;;4.80;;
15921;SDS011;8060;50.948;3.146;2024-02-16T03:37:31;6.93;;;4.83;;
15921;SDS011;8060;50.948;3.146;2024-02-16T03:40:00;9.33;;;4.73;;
15921;SDS011;8060;50.948;3.146;2024-02-16T03:42:28;8.60;;;5.00;;
15921;SDS011;8060;50.948;3.146;2024-02-16T03:44:57;7.53;;;4.93;;
15921;SDS011;8060;50.948;3.146;2024-02-16T03:47:26;13.03;;;5.23;;
15921;SDS011;8060;50.948;3.146;2024-02-16T03:49:55;9.83;;;5.17;;
15921;SDS011;8060;50.948;3.146;2024-02-16T03:52:23;7.43;;;4.83;;
15921;SDS011;8060;50.948;3.146;2024-02-16T03:54:51;10.23;;;4.90;;
15921;SDS011;8060;50.948;3.146;2024-02-16T03:57:19;8.03;;;5.13;;
15921;SDS011;8060;50.948;3.146;2024-02-16T03:59:47;7.20;;;5.07;;
15921;SDS011;8060;50.948;3.146;2024-02-16T04:02:16;10.07;;;5.70;;
15921;SDS011;8060;50.948;3.146;2024-02-16T04:04:44;9.37;;;5.20;;
15921;SDS011;8060;50.948;3.146;2024-02-16T04:07:14;11.57;;;5.70;;
15921;SDS011;8060;50.948;3.146;2024-02-16T04:09:43;10.30;;;5.10;;
15921;SDS011;8060;50.948;3.146;2024-02-16T04:12:11;10.33;;;5.13;;
15921;SDS011;8060;50.948;3.146;2024-02-16T04:14:40;12.20;;;5.47;;
15921;SDS011;8060;50.948;3.146;2024-02-16T04:17:10;8.70;;;5.17;;
15921;SDS011;8060;50.948;3.146;2024-02-16T04:19:38;8.30;;;5.23;;
15921;SDS011;8060;50.948;3.146;2024-02-16T04:22:06;10.83;;;5.37;;
15921;SDS011;8060;50.948;3.146;2024-02-16T04:24:35;9.93;;;4.87;;
15921;SDS011;8060;50.948;3.146;2024-02-16T04:27:04;7.83;;;4.90;;
15921;SDS011;8060;50.948;3.146;2024-02-16T04:29:34;11.23;;;5.00;;
15921;SDS011;8060;50.948;3.146;2024-02-16T04:32:03;10.53;;;5.70;;
15921;SDS011;8060;50.948;3.146;2024-02-16T04:34:31;9.17;;;4.93;;
15921;SDS011;8060;50.948;3.146;2024-02-16T04:36:59;10.23;;;5.17;;
15921;SDS011;8060;50.948;3.146;2024-02-16T04:39:28;9.53;;;5.30;;
15921;SDS011;8060;50.948;3.146;2024-02-16T04:41:58;10.20;;;5.47;;
15921;SDS011;8060;50.948;3.146;2024-02-16T04:44:26;11.10;;;5.37;;
15921;SDS011;8060;50.948;3.146;2024-02-16T04:46:54;10.57;;;5.30;;
15921;SDS011;8060;50.948;3.146;2024-02-16T04:49:22;6.20;;;5.10;;
15921;SDS011;8060;50.948;3.146;2024-02-16T04:51:51;6.93;;;5.07;;
15921;SDS011;8060;50.948;3.146;2024-02-16T04:54:19;8.77;;;4.97;;
15921;SDS011;8060;50.948;3.146;2024-02-16T04:56:47;8.00;;;5.20;;
15921;SDS011;8060;50.948;3.146;2024-02-16T04:59:17;11.53;;;5.30;;
15921;SDS011;8060;50.948;3.146;2024-02-16T05:01:45;8.17;;;5.03;;
15921;SDS011;8060;50.948;3.146;2024-02-16T05:04:13;10.53;;;5.13;;
15921;SDS011;8060;50.948;3.146;2024-02-16T05:06:44;8.90;;;5.40;;
15921;SDS011;8060;50.948;3.146;2024-02-16T05:09:13;8.17;;;5.33;;
15921;SDS011;8060;50.948;3.146;2024-02-16T05:11:43;12.40;;;4.97;;
15921;SDS011;8060;50.948;3.146;2024-02-16T05:14:11;8.33;;;4.73;;
15921;SDS011;8060;50.948;3.146;2024-02-16T05:16:43;10.00;;;5.07;;
15921;SDS011;8060;50.948;3.146;2024-02-16T05:19:12;8.00;;;5.00;;
15921;SDS011;8060;50.948;3.146;2024-02-16T05:21:40;7.60;;;5.40;;
15921;SDS011;8060;50.948;3.146;2024-02-16T05:24:09;8.60;;;5.13;;
15921;SDS011;8060;50.948;3.146;2024-02-16T05:26:37;10.33;;;5.60;;
15921;SDS011;8060;50.948;3.146;2024-02-16T05:29:05;14.33;;;5.43;;
15921;SDS011;8060;50.948;3.146;2024-02-16T05:31:33;9.20;;;5.23;;
15921;SDS011;8060;50.948;3.146;2024-02-16T05:34:02;8.40;;;5.00;;
15921;SDS011;8060;50.948;3.146;2024-02-16T05:36:30;9.77;;;5.23;;
15921;SDS011;8060;50.948;3.146;2024-02-16T05:39:02;10.63;;;5.03;;
15921;SDS011;8060;50.948;3.146;2024-02-16T05:41:46;9.37;;;5.10;;
15921;SDS011;8060;50.948;3.146;2024-02-16T05:44:15;10.17;;;4.93;;
15921;SDS011;8060;50.948;3.146;2024-02-16T05:46:44;12.13;;;5.27;;
15921;SDS011;8060;50.948;3.146;2024-02-16T05:49:13;9.73;;;5.43;;
15921;SDS011;8060;50.948;3.146;2024-02-16T05:51:42;9.50;;;5.27;;
15921;SDS011;8060;50.948;3.146;2024-02-16T05:54:29;12.63;;;5.53;;
15921;SDS011;8060;50.948;3.146;2024-02-16T05:57:00;8.90;;;5.33;;
15921;SDS011;8060;50.948;3.146;2024-02-16T05:59:30;11.70;;;5.17;;
15921;SDS011;8060;50.948;3.146;2024-02-16T06:01:59;11.63;;;5.40;;
15921;SDS011;8060;50.948;3.146;2024-02-16T06:04:28;10.23;;;5.23;;
15921;SDS011;8060;50.948;3.146;2024-02-16T06:06:56;11.27;;;5.20;;
15921;SDS011;8060;50.948;3.146;2024-02-16T06:09:25;15.23;;;5.70;;
15921;SDS011;8060;50.948;3.146;2024-02-16T06:12:03;10.80;;;5.73;;
15921;SDS011;8060;50.948;3.146;2024-02-16T06:14:33;11.47;;;5.73;;
15921;SDS011;8060;50.948;3.146;2024-02-16T06:17:03;9.90;;;5.50;;
15921;SDS011;8060;50.948;3.146;2024-02-16T06:19:32;21.13;;;6.13;;
15921;SDS011;8060;50.948;3.146;2024-02-16T06:22:00;9.67;;;5.07;;
15921;SDS011;8060;50.948;3.146;2024-02-16T06:24:29;10.33;;;5.67;;
15921;SDS011;8060;50.948;3.146;2024-02-16T06:26:57;10.80;;;5.53;;
15921;SDS011;8060;50.948;3.146;2024-02-16T06:29:25;10.70;;;5.47;;
15921;SDS011;8060;50.948;3.146;2024-02-16T06:31:53;13.83;;;5.83;;
15921;SDS011;8060;50.948;3.146;2024-02-16T06:34:21;9.50;;;5.20;;
15921;SDS011;8060;50.948;3.146;2024-02-16T06:36:51;10.70;;;5.87;;
15921;SDS011;8060;50.948;3.146;2024-02-16T06:39:19;8.17;;;5.27;;
15921;SDS011;8060;50.948;3.146;2024-02-16T06:41:47;8.60;;;5.37;;
15921;SDS011;8060;50.948;3.146;2024-02-16T06:44:16;10.07;;;5.43;;
15921;SDS011;8060;50.948;3.146;2024-02-16T06:46:49;11.20;;;5.73;;
15921;SDS011;8060;50.948;3.146;2024-02-16T06:49:17;14.63;;;6.07;;
15921;SDS011;8060;50.948;3.146;2024-02-16T06:51:45;7.90;;;5.33;;
15921;SDS011;8060;50.948;3.146;2024-02-16T06:54:15;12.00;;;5.60;;
15921;SDS011;8060;50.948;3.146;2024-02-16T06:56:43;10.60;;;5.70;;
15921;SDS011;8060;50.948;3.146;2024-02-16T06:59:11;10.10;;;5.80;;
15921;SDS011;8060;50.948;3.146;2024-02-16T07:01:39;12.00;;;6.07;;
15921;SDS011;8060;50.948;3.146;2024-02-16T07:04:08;8.50;;;5.23;;
15921;SDS011;8060;50.948;3.146;2024-02-16T07:06:36;11.07;;;5.73;;
15921;SDS011;8060;50.948;3.146;2024-02-16T07:09:05;11.77;;;6.00;;
15921;SDS011;8060;50.948;3.146;2024-02-16T07:11:35;11.17;;;6.00;;
15921;SDS011;8060;50.948;3.146;2024-02-16T07:14:04;9.40;;;6.00;;
15921;SDS011;8060;50.948;3.146;2024-02-16T07:16:33;8.83;;;5.33;;
15921;SDS011;8060;50.948;3.146;2024-02-16T07:19:01;9.17;;;5.57;;
15921;SDS011;8060;50.948;3.146;2024-02-16T07:21:29;7.10;;;5.20;;
15921;SDS011;8060;50.948;3.146;2024-02-16T07:23:58;11.50;;;5.43;;
15921;SDS011;8060;50.948;3.146;2024-02-16T07:26:26;12.40;;;5.50;;
15921;SDS011;8060;50.948;3.146;2024-02-16T07:28:57;11.63;;;5.77;;
15921;SDS011;8060;50.948;3.146;2024-02-16T07:31:25;9.50;;;5.80;;
15921;SDS011;8060;50.948;3.146;2024-02-16T07:33:53;16.40;;;6.03;;
15921;SDS011;8060;50.948;3.146;2024-02-16T07:36:21;10.87;;;5.97;;
15921;SDS011;8060;50.948;3.146;2024-02-16T07:38:49;14.50;;;5.80;;
15921;SDS011;8060;50.948;3.146;2024-02-16T07:41:18;9.03;;;5.67;;
15921;SDS011;8060;50.948;3.146;2024-02-16T07:43:46;15.30;;;5.90;;
15921;SDS011;8060;50.948;3.146;2024-02-16T07:46:15;11.53;;;5.63;;
15921;SDS011;8060;50.948;3.146;2024-02-16T07:48:44;10.57;;;5.60;;
15921;SDS011;8060;50.948;3.146;2024-02-16T07:51:12;8.90;;;6.13;;
15921;SDS011;8060;50.948;3.146;2024-02-16T07:53:40;17.37;;;5.90;;
15921;SDS011;8060;50.948;3.146;2024-02-16T07:56:11;12.67;;;6.03;;
15921;SDS011;8060;50.948;3.146;2024-02-16T07:58:40;8.03;;;5.43;;
15921;SDS011;8060;50.948;3.146;2024-02-16T08:01:11;12.10;;;6.00;;
15921;SDS011;8060;50.948;3.146;2024-02-16T08:03:43;13.00;;;6.10;;
15921;SDS011;8060;50.948;3.146;2024-02-16T08:06:11;8.63;;;5.63;;
15921;SDS011;8060;50.948;3.146;2024-02-16T08:08:40;12.53;;;5.77;;
15921;SDS011;8060;50.948;3.146;2024-02-16T08:11:08;14.40;;;6.27;;
15921;SDS011;8060;50.948;3.146;2024-02-16T08:13:36;12.17;;;6.30;;
15921;SDS011;8060;50.948;3.146;2024-02-16T08:16:04;15.37;;;6.63;;
15921;SDS011;8060;50.948;3.146;2024-02-16T08:18:33;12.93;;;5.90;;
15921;SDS011;8060;50.948;3.146;2024-02-16T08:21:03;13.10;;;6.23;;
15921;SDS011;8060;50.948;3.146;2024-02-16T08:23:32;12.60;;;6.17;;
15921;SDS011;8060;50.948;3.146;2024-02-16T08:26:00;13.97;;;6.37;;
15921;SDS011;8060;50.948;3.146;2024-02-16T08:28:28;15.93;;;6.50;;
15921;SDS011;8060;50.948;3.146;2024-02-16T08:30:56;12.37;;;6.27;;
15921;SDS011;8060;50.948;3.146;2024-02-16T08:33:26;12.53;;;6.33;;
15921;SDS011;8060;50.948;3.146;2024-02-16T08:35:54;12.57;;;6.30;;
15921;SDS011;8060;50.948;3.146;2024-02-16T08:38:24;14.30;;;7.13;;
15921;SDS011;8060;50.948;3.146;2024-02-16T08:40:52;15.23;;;6.63;;
15921;SDS011;8060;50.948;3.146;2024-02-16T08:43:20;13.50;;;6.73;;
15921;SDS011;8060;50.948;3.146;2024-02-16T08:45:48;20.47;;;8.10;;
15921;SDS011;8060;50.948;3.146;2024-02-16T08:48:17;15.33;;;7.40;;
15921;SDS011;8060;50.948;3.146;2024-02-16T08:50:45;15.07;;;7.20;;
15921;SDS011;8060;50.948;3.146;2024-02-16T08:53:13;19.63;;;7.97;;
15921;SDS011;8060;50.948;3.146;2024-02-16T08:55:44;13.67;;;7.67;;
15921;SDS011;8060;50.948;3.146;2024-02-16T08:58:12;14.33;;;7.60;;
15921;SDS011;8060;50.948;3.146;2024-02-16T09:00:40;16.60;;;8.27;;
15921;SDS011;8060;50.948;3.146;2024-02-16T09:03:08;17.03;;;7.33;;
15921;SDS011;8060;50.948;3.146;2024-02-16T09:05:37;20.37;;;8.03;;
15921;SDS011;8060;50.948;3.146;2024-02-16T09:08:05;15.73;;;7.80;;
15921;SDS011;8060;50.948;3.146;2024-02-16T09:10:33;16.93;;;7.63;;
15921;SDS011;8060;50.948;3.146;2024-02-16T09:13:05;15.97;;;7.80;;
15921;SDS011;8060;50.948;3.146;2024-02-16T09:15:35;25.40;;;8.83;;
15921;SDS011;8060;50.948;3.146;2024-02-16T09:18:04;20.07;;;8.07;;
15921;SDS011;8060;50.948;3.146;2024-02-16T09:20:32;22.40;;;9.37;;
15921;SDS011;8060;50.948;3.146;2024-02-16T09:23:00;16.20;;;8.70;;
15921;SDS011;8060;50.948;3.146;2024-02-16T09:25:29;15.03;;;8.27;;
15921;SDS011;8060;50.948;3.146;2024-02-16T09:27:57;17.13;;;10.03;;
15921;SDS011;8060;50.948;3.146;2024-02-16T09:30:26;17.50;;;9.47;;
15921;SDS011;8060;50.948;3.146;2024-02-16T09:32:54;23.30;;;10.07;;
15921;SDS011;8060;50.948;3.146;2024-02-16T09:35:22;18.43;;;9.47;;
15921;SDS011;8060;50.948;3.146;2024-02-16T09:37:50;20.63;;;11.20;;
15921;SDS011;8060;50.948;3.146;2024-02-16T09:40:19;22.40;;;11.10;;
15921;SDS011;8060;50.948;3.146;2024-02-16T09:42:47;19.90;;;11.07;;
15921;SDS011;8060;50.948;3.146;2024-02-16T09:45:17;15.90;;;10.87;;
15921;SDS011;8060;50.948;3.146;2024-02-16T09:47:46;18.50;;;11.30;;
15921;SDS011;8060;50.948;3.146;2024-02-16T09:50:28;24.13;;;11.40;;
15921;SDS011;8060;50.948;3.146;2024-02-16T09:52:57;24.53;;;12.37;;
15921;SDS011;8060;50.948;3.146;2024-02-16T09:55:26;24.73;;;13.17;;
15921;SDS011;8060;50.948;3.146;2024-02-16T09:57:59;26.27;;;13.23;;
15921;SDS011;8060;50.948;3.146;2024-02-16T10:00:28;23.70;;;13.90;;
15921;SDS011;8060;50.948;3.146;2024-02-16T10:02:57;22.50;;;13.47;;
15921;SDS011;8060;50.948;3.146;2024-02-16T10:05:26;22.87;;;14.23;;
15921;SDS011;8060;50.948;3.146;2024-02-16T10:07:57;25.97;;;16.03;;
15921;SDS011;8060;50.948;3.146;2024-02-16T10:10:26;25.60;;;16.07;;
15921;SDS011;8060;50.948;3.146;2024-02-16T10:13:00;32.80;;;18.50;;
15921;SDS011;8060;50.948;3.146;2024-02-16T10:15:30;26.23;;;18.20;;
15921;SDS011;8060;50.948;3.146;2024-02-16T10:18:00;30.57;;;18.40;;
15921;SDS011;8060;50.948;3.146;2024-02-16T10:20:29;27.70;;;19.33;;
15921;SDS011;8060;50.948;3.146;2024-02-16T10:23:04;28.27;;;19.03;;
15921;SDS011;8060;50.948;3.146;2024-02-16T10:25:33;30.30;;;19.70;;
15921;SDS011;8060;50.948;3.146;2024-02-16T10:28:04;26.23;;;18.40;;
15921;SDS011;8060;50.948;3.146;2024-02-16T10:30:34;27.67;;;19.00;;
15921;SDS011;8060;50.948;3.146;2024-02-16T10:33:06;25.80;;;18.20;;
15921;SDS011;8060;50.948;3.146;2024-02-16T10:35:35;22.60;;;16.13;;
15921;SDS011;8060;50.948;3.146;2024-02-16T10:38:04;18.40;;;13.27;;
15921;SDS011;8060;50.948;3.146;2024-02-16T10:40:37;18.10;;;11.90;;
15921;SDS011;8060;50.948;3.146;2024-02-16T10:43:06;12.33;;;9.40;;
15921;SDS011;8060;50.948;3.146;2024-02-16T10:45:36;13.87;;;9.17;;
15921;SDS011;8060;50.948;3.146;2024-02-16T10:48:08;14.13;;;8.60;;
15921;SDS011;8060;50.948;3.146;2024-02-16T10:50:37;12.93;;;8.43;;
15921;SDS011;8060;50.948;3.146;2024-02-16T10:53:08;11.00;;;7.50;;
15921;SDS011;8060;50.948;3.146;2024-02-16T10:55:40;9.53;;;6.87;;
15921;SDS011;8060;50.948;3.146;2024-02-16T10:58:10;11.30;;;6.87;;
15921;SDS011;8060;50.948;3.146;2024-02-16T11:00:47;9.53;;;6.97;;
15921;SDS011;8060;50.948;3.146;2024-02-16T11:03:23;10.73;;;6.93;;
15921;SDS011;8060;50.948;3.146;2024-02-16T11:05:52;10.53;;;6.43;;
15921;SDS011;8060;50.948;3.146;2024-02-16T11:08:23;10.43;;;6.17;;
15921;SDS011;8060;50.948;3.146;2024-02-16T11:10:54;7.90;;;5.37;;
15921;SDS011;8060;50.948;3.146;2024-02-16T11:13:23;9.20;;;5.40;;
15921;SDS011;8060;50.948;3.146;2024-02-16T11:15:58;8.13;;;5.30;;
15921;SDS011;8060;50.948;3.146;2024-02-16T11:18:29;7.23;;;4.57;;
15921;SDS011;8060;50.948;3.146;2024-02-16T11:21:02;6.63;;;4.37;;
15921;SDS011;8060;50.948;3.146;2024-02-16T11:23:32;9.13;;;4.07;;
15921;SDS011;8060;50.948;3.146;2024-02-16T11:26:01;10.33;;;4.60;;
15921;SDS011;8060;50.948;3.146;2024-02-16T11:28:31;8.60;;;4.50;;
15921;SDS011;8060;50.948;3.146;2024-02-16T11:31:00;11.00;;;4.37;;
15921;SDS011;8060;50.948;3.146;2024-02-16T11:33:30;7.20;;;5.43;;
15921;SDS011;8060;50.948;3.146;2024-02-16T11:35:59;7.20;;;5.03;;
15921;SDS011;8060;50.948;3.146;2024-02-16T11:38:30;8.30;;;5.17;;
15921;SDS011;8060;50.948;3.146;2024-02-16T11:41:01;9.07;;;4.87;;
15921;SDS011;8060;50.948;3.146;2024-02-16T11:43:31;7.53;;;4.93;;
15921;SDS011;8060;50.948;3.146;2024-02-16T11:46:10;8.67;;;4.90;;
15921;SDS011;8060;50.948;3.146;2024-02-16T11:48:40;8.10;;;5.23;;
15921;SDS011;8060;50.948;3.146;2024-02-16T11:51:09;8.43;;;4.70;;
15921;SDS011;8060;50.948;3.146;2024-02-16T11:53:37;8.47;;;5.17;;
15921;SDS011;8060;50.948;3.146;2024-02-16T11:56:05;10.23;;;5.53;;
15921;SDS011;8060;50.948;3.146;2024-02-16T11:58:33;8.23;;;5.10;;
15921;SDS011;8060;50.948;3.146;2024-02-16T12:01:03;7.77;;;4.60;;
15921;SDS011;8060;50.948;3.146;2024-02-16T12:03:40;9.73;;;4.90;;
15921;SDS011;8060;50.948;3.146;2024-02-16T12:06:18;7.43;;;4.17;;
15921;SDS011;8060;50.948;3.146;2024-02-16T12:08:49;6.03;;;4.07;;
15921;SDS011;8060;50.948;3.146;2024-02-16T12:11:19;7.07;;;3.90;;
15921;SDS011;8060;50.948;3.146;2024-02-16T12:13:47;5.07;;;3.67;;
15921;SDS011;8060;50.948;3.146;2024-02-16T12:16:18;6.53;;;3.80;;
15921;SDS011;8060;50.948;3.146;2024-02-16T12:18:48;7.93;;;3.70;;
15921;SDS011;8060;50.948;3.146;2024-02-16T12:21:17;5.47;;;3.63;;
15921;SDS011;8060;50.948;3.146;2024-02-16T12:23:47;5.47;;;3.87;;
15921;SDS011;8060;50.948;3.146;2024-02-16T12:26:15;11.47;;;3.43;;
15921;SDS011;8060;50.948;3.146;2024-02-16T12:28:43;4.40;;;3.20;;
15921;SDS011;8060;50.948;3.146;2024-02-16T12:31:17;5.70;;;3.40;;
15921;SDS011;8060;50.948;3.146;2024-02-16T12:33:47;4.73;;;2.63;;
15921;SDS011;8060;50.948;3.146;2024-02-16T12:36:16;3.17;;;2.73;;
15921;SDS011;8060;50.948;3.146;2024-02-16T12:38:44;5.47;;;3.80;;
15921;SDS011;8060;50.948;3.146;2024-02-16T12:41:13;4.17;;;3.27;;
15921;SDS011;8060;50.948;3.146;2024-02-16T12:43:41;4.20;;;3.27;;
15921;SDS011;8060;50.948;3.146;2024-02-16T12:46:09;6.33;;;3.30;;
15921;SDS011;8060;50.948;3.146;2024-02-16T12:48:37;5.37;;;3.20;;
15921;SDS011;8060;50.948;3.146;2024-02-16T12:51:07;6.03;;;3.17;;
15921;SDS011;8060;50.948;3.146;2024-02-16T12:53:37;6.43;;;3.20;;
15921;SDS011;8060;50.948;3.146;2024-02-16T12:56:07;4.50;;;3.37;;
15921;SDS011;8060;50.948;3.146;2024-02-16T12:58:36;3.63;;;3.00;;
15921;SDS011;8060;50.948;3.146;2024-02-16T13:01:04;3.40;;;2.77;;
15921;SDS011;8060;50.948;3.146;2024-02-16T13:03:45;3.30;;;2.10;;
15921;SDS011;8060;50.948;3.146;2024-02-16T13:06:14;2.80;;;2.10;;
15921;SDS011;8060;50.948;3.146;2024-02-16T13:08:43;4.03;;;2.00;;
15921;SDS011;8060;50.948;3.146;2024-02-16T13:11:11;2.40;;;1.90;;
15921;SDS011;8060;50.948;3.146;2024-02-16T13:13:39;3.93;;;2.00;;
15921;SDS011;8060;50.948;3.146;2024-02-16T13:16:08;4.83;;;1.80;;
15921;SDS011;8060;50.948;3.146;2024-02-16T13:18:36;2.53;;;1.83;;
15921;SDS011;8060;50.948;3.146;2024-02-16T13:21:05;2.13;;;1.53;;
15921;SDS011;8060;50.948;3.146;2024-02-16T13:23:34;3.47;;;1.67;;
15921;SDS011;8060;50.948;3.146;2024-02-16T13:26:02;3.10;;;1.87;;
15921;SDS011;8060;50.948;3.146;2024-02-16T13:28:32;5.87;;;1.63;;
15921;SDS011;8060;50.948;3.146;2024-02-16T13:31:00;4.40;;;1.80;;
15921;SDS011;8060;50.948;3.146;2024-02-16T13:33:28;4.13;;;1.63;;
15921;SDS011;8060;50.948;3.146;2024-02-16T13:35:57;4.77;;;1.80;;
15921;SDS011;8060;50.948;3.146;2024-02-16T13:38:25;2.83;;;1.60;;
15921;SDS011;8060;50.948;3.146;2024-02-16T13:40:55;8.90;;;2.00;;
15921;SDS011;8060;50.948;3.146;2024-02-16T13:43:24;5.60;;;1.80;;
15921;SDS011;8060;50.948;3.146;2024-02-16T13:45:53;7.53;;;2.00;;
15921;SDS011;8060;50.948;3.146;2024-02-16T13:48:24;5.80;;;2.43;;
15921;SDS011;8060;50.948;3.146;2024-02-16T13:50:53;4.43;;;1.83;;
15921;SDS011;8060;50.948;3.146;2024-02-16T13:53:23;4.37;;;2.40;;
15921;SDS011;8060;50.948;3.146;2024-02-16T13:55:56;6.37;;;2.40;;
15921;SDS011;8060;50.948;3.146;2024-02-16T13:58:27;5.50;;;2.57;;
15921;SDS011;8060;50.948;3.146;2024-02-16T14:00:55;4.50;;;2.77;;
15921;SDS011;8060;50.948;3.146;2024-02-16T14:03:23;4.30;;;2.70;;
15921;SDS011;8060;50.948;3.146;2024-02-16T14:05:52;7.60;;;3.53;;
15921;SDS011;8060;50.948;3.146;2024-02-16T14:08:20;7.63;;;3.07;;
15921;SDS011;8060;50.948;3.146;2024-02-16T14:10:49;5.77;;;3.43;;
15921;SDS011;8060;50.948;3.146;2024-02-16T14:13:18;6.67;;;3.57;;
15921;SDS011;8060;50.948;3.146;2024-02-16T14:15:47;6.43;;;3.47;;
15921;SDS011;8060;50.948;3.146;2024-02-16T14:18:16;6.00;;;3.53;;
15921;SDS011;8060;50.948;3.146;2024-02-16T14:20:59;10.13;;;3.47;;
15921;SDS011;8060;50.948;3.146;2024-02-16T14:23:28;6.43;;;3.50;;
15921;SDS011;8060;50.948;3.146;2024-02-16T14:25:57;7.63;;;3.80;;
15921;SDS011;8060;50.948;3.146;2024-02-16T14:28:27;5.77;;;3.70;;
15921;SDS011;8060;50.948;3.146;2024-02-16T14:30:55;6.10;;;3.87;;
15921;SDS011;8060;50.948;3.146;2024-02-16T14:33:23;7.27;;;2.70;;
15921;SDS011;8060;50.948;3.146;2024-02-16T14:35:59;4.57;;;2.50;;
15921;SDS011;8060;50.948;3.146;2024-02-16T14:38:28;6.33;;;2.80;;
15921;SDS011;8060;50.948;3.146;2024-02-16T14:40:57;5.30;;;2.80;;
15921;SDS011;8060;50.948;3.146;2024-02-16T14:43:31;6.88;;;2.50;;
15921;SDS011;8060;50.948;3.146;2024-02-16T14:45:59;4.75;;;2.65;;
15921;SDS011;8060;50.948;3.146;2024-02-16T14:48:28;6.18;;;2.75;;
15921;SDS011;8060;50.948;3.146;2024-02-16T14:50:56;6.55;;;3.03;;
15921;SDS011;8060;50.948;3.146;2024-02-16T14:53:25;4.93;;;2.60;;
15921;SDS011;8060;50.948;3.146;2024-02-16T14:55:53;5.97;;;2.72;;
15921;SDS011;8060;50.948;3.146;2024-02-16T14:58:22;5.50;;;2.75;;
15921;SDS011;8060;50.948;3.146;2024-02-16T15:00:51;3.13;;;2.40;;
15921;SDS011;8060;50.948;3.146;2024-02-16T15:03:20;4.60;;;2.58;;
15921;SDS011;8060;50.948;3.146;2024-02-16T15:05:49;7.18;;;2.65;;